Time;durP1;ratioP1;P1;durP2;ratioP2;P2;SDS_P1;SDS_P2;PMS_P1;PMS_P2;Temp;Humidity;BMP_temperature;BMP_pressure;BME280_temperature;BME280_humidity;BME280_pressure;Samples;Min_cycle;Max_cycle;Signal;HPM_P1;HPM_P2
2022/12/04 00:01:25;;;;;;;52.30;20.40;;;3.20;99.90;;;;;;4673548;30;20051;-78
2022/12/04 00:04:07;;;;;;;52.53;21.73;;;3.40;99.90;;;;;;4696907;30;20049;-78
2022/12/04 00:06:34;;;;;;;52.42;20.45;;;3.00;99.90;;;;;;4707456;30;20081;-78
2022/12/04 00:09:02;;;;;;;53.38;20.40;;;3.10;99.90;;;;;;4710025;30;20113;-78
2022/12/04 00:11:34;;;;;;;47.22;19.98;;;3.10;99.90;;;;;;4707131;30;20044;-78
2022/12/04 00:14:02;;;;;;;45.72;19.23;;;4.00;99.90;;;;;;4708354;30;20099;-77
2022/12/04 00:16:34;;;;;;;48.20;21.15;;;3.10;99.90;;;;;;4723265;30;20074;-77
2022/12/04 00:19:03;;;;;;;48.33;19.33;;;3.10;99.90;;;;;;4720133;30;20057;-78
2022/12/04 00:21:31;;;;;;;54.28;22.20;;;3.10;99.90;;;;;;4708906;30;20080;-78
2022/12/04 00:24:03;;;;;;;53.70;20.67;;;3.00;99.90;;;;;;4724506;30;20065;-78
2022/12/04 00:26:30;;;;;;;48.83;19.92;;;3.10;99.90;;;;;;4713431;30;20054;-78
2022/12/04 00:28:58;;;;;;;55.65;21.77;;;2.60;99.90;;;;;;4710105;30;20053;-78
2022/12/04 00:31:27;;;;;;;52.53;20.33;;;3.00;99.90;;;;;;4718677;30;20077;-77
2022/12/04 00:33:58;;;;;;;50.80;19.85;;;2.50;99.90;;;;;;4708835;30;20048;-78
2022/12/04 00:36:34;;;;;;;55.88;21.55;;;3.40;99.90;;;;;;4711031;30;20063;-78
2022/12/04 00:39:03;;;;;;;50.40;21.38;;;3.00;99.90;;;;;;4720792;30;20095;-78
2022/12/04 00:41:33;;;;;;;53.80;21.27;;;2.20;99.90;;;;;;4697979;30;20060;-78
2022/12/04 00:44:02;;;;;;;47.70;19.05;;;3.00;99.90;;;;;;4720548;30;20055;-77
2022/12/04 00:46:33;;;;;;;47.28;19.88;;;3.10;99.90;;;;;;4697137;30;20052;-78
2022/12/04 00:49:03;;;;;;;53.33;21.00;;;2.50;99.90;;;;;;4695012;30;20049;-78
2022/12/04 00:51:33;;;;;;;48.70;19.83;;;3.10;99.90;;;;;;4705123;30;20079;-78
2022/12/04 00:54:01;;;;;;;51.47;19.50;;;3.00;99.90;;;;;;4705615;30;20166;-77
2022/12/04 00:56:34;;;;;;;45.28;19.23;;;3.40;99.90;;;;;;4700257;30;20057;-78
2022/12/04 00:59:02;;;;;;;45.10;18.67;;;3.10;99.90;;;;;;4704349;30;20083;-78
2022/12/04 01:01:31;;;;;;;45.60;18.23;;;3.10;99.90;;;;;;4712665;30;20050;-78
2022/12/04 01:03:58;;;;;;;47.97;19.20;;;3.00;99.90;;;;;;4703926;30;20507;-77
2022/12/04 01:06:31;;;;;;;44.88;18.60;;;3.10;99.90;;;;;;4688909;30;20049;-77
2022/12/04 01:09:00;;;;;;;45.47;17.83;;;3.80;99.90;;;;;;4715777;30;20062;-78
2022/12/04 01:11:28;;;;;;;44.05;17.60;;;1.90;99.90;;;;;;4714672;30;20048;-78
2022/12/04 01:13:57;;;;;;;48.42;18.45;;;3.10;99.90;;;;;;4704994;30;20534;-78
2022/12/04 01:16:28;;;;;;;43.75;18.63;;;3.10;99.90;;;;;;4701160;30;20376;-77
2022/12/04 01:18:56;;;;;;;46.92;19.17;;;3.10;99.90;;;;;;4703656;30;20064;-78
2022/12/04 01:21:23;;;;;;;43.47;18.73;;;3.10;99.90;;;;;;4714832;30;21507;-77
2022/12/04 01:23:52;;;;;;;48.83;20.15;;;3.50;99.90;;;;;;4718020;30;20515;-77
2022/12/04 01:26:22;;;;;;;45.72;18.00;;;3.30;99.90;;;;;;4704086;30;20126;-78
2022/12/04 01:28:49;;;;;;;50.15;18.55;;;3.10;99.90;;;;;;4707985;30;20096;-78
2022/12/04 01:31:20;;;;;;;47.92;18.00;;;3.10;99.90;;;;;;4708802;30;20163;-77
2022/12/04 01:33:48;;;;;;;52.58;20.52;;;3.10;99.90;;;;;;4705433;30;20061;-78
2022/12/04 01:36:22;;;;;;;50.58;18.95;;;3.90;99.90;;;;;;4714040;30;20053;-78
2022/12/04 01:38:50;;;;;;;49.28;19.17;;;3.10;99.90;;;;;;4734930;30;20067;-77
2022/12/04 01:41:22;;;;;;;46.55;19.42;;;2.90;99.90;;;;;;4724685;30;20060;-77
2022/12/04 01:44:10;;;;;;;41.47;17.83;;;3.20;99.90;;;;;;4740129;30;20048;-78
2022/12/04 01:46:38;;;;;;;51.28;20.05;;;3.10;99.90;;;;;;4725043;30;20053;-78
2022/12/04 01:49:14;;;;;;;45.80;18.67;;;3.10;99.90;;;;;;4740106;30;20067;-78
2022/12/04 01:51:47;;;;;;;48.47;19.67;;;2.60;99.90;;;;;;4726729;30;20040;-78
2022/12/04 01:54:21;;;;;;;49.05;20.60;;;2.50;99.90;;;;;;4741236;30;20057;-78
2022/12/04 01:56:53;;;;;;;48.40;20.38;;;3.00;99.90;;;;;;4745492;30;20048;-78
2022/12/04 01:59:25;;;;;;;38.80;17.30;;;3.90;99.90;;;;;;4732084;30;20041;-78
2022/12/04 02:02:02;;;;;;;50.13;20.30;;;3.00;99.90;;;;;;4741656;30;20056;-77
2022/12/04 02:04:32;;;;;;;48.38;19.80;;;3.00;99.90;;;;;;4737038;30;20077;-77
2022/12/04 02:07:03;;;;;;;47.50;19.45;;;3.00;99.90;;;;;;4736751;30;20064;-77
2022/12/04 02:09:34;;;;;;;45.90;19.60;;;2.80;99.90;;;;;;4727794;30;20071;-78
2022/12/04 02:12:33;;;;;;;50.60;22.25;;;3.70;99.90;;;;;;4725047;30;20041;-77
2022/12/04 02:15:20;;;;;;;48.05;20.80;;;3.10;99.90;;;;;;4745246;30;20048;-78
2022/12/04 02:18:01;;;;;;;49.95;19.92;;;3.00;99.90;;;;;;4720068;30;20049;-77
2022/12/04 02:20:51;;;;;;;51.53;21.27;;;2.40;99.90;;;;;;4738391;30;20064;-78
2022/12/04 02:23:46;;;;;;;49.40;19.63;;;3.10;99.90;;;;;;4719384;30;20061;-77
2022/12/04 02:26:42;;;;;;;52.85;20.75;;;3.10;99.90;;;;;;4710433;30;20067;-78
2022/12/04 02:29:27;;;;;;;53.60;20.23;;;3.10;99.90;;;;;;4721214;30;20046;-78
2022/12/04 02:32:01;;;;;;;51.25;22.83;;;3.10;99.90;;;;;;4701650;30;20061;-77
2022/12/04 02:35:05;;;;;;;52.22;20.80;;;4.50;99.90;;;;;;4700029;30;20458;-77
2022/12/04 02:37:37;;;;;;;52.13;21.70;;;2.70;99.90;;;;;;4676199;30;20060;-77
2022/12/04 02:40:22;;;;;;;52.72;20.40;;;3.10;99.90;;;;;;4703204;30;20049;-78
2022/12/04 02:43:02;;;;;;;52.35;22.40;;;3.00;99.90;;;;;;4702612;30;20061;-78
2022/12/04 02:45:45;;;;;;;57.80;21.90;;;3.20;99.90;;;;;;4704961;30;20139;-77
2022/12/04 02:48:17;;;;;;;54.08;21.63;;;3.10;99.90;;;;;;4699907;30;20105;-77
2022/12/04 02:50:49;;;;;;;68.15;24.67;;;3.00;99.90;;;;;;4701355;30;20045;-78
2022/12/04 02:53:21;;;;;;;57.65;21.30;;;3.00;99.90;;;;;;4702195;30;20073;-78
2022/12/04 02:56:00;;;;;;;59.83;24.70;;;3.40;99.90;;;;;;4702669;30;20171;-78
2022/12/04 02:58:51;;;;;;;62.88;23.00;;;3.00;99.90;;;;;;4703204;30;20458;-77
2022/12/04 03:01:25;;;;;;;62.28;23.98;;;3.10;99.90;;;;;;4706029;30;20084;-78
2022/12/04 03:04:00;;;;;;;56.70;22.60;;;3.00;99.90;;;;;;4714853;30;20049;-77
2022/12/04 03:06:33;;;;;;;62.90;24.83;;;3.00;99.90;;;;;;4740095;30;20390;-78
2022/12/04 03:09:12;;;;;;;51.97;20.60;;;3.00;99.90;;;;;;4722184;30;20087;-77
2022/12/04 03:11:48;;;;;;;54.13;20.70;;;2.90;99.90;;;;;;4732476;30;20045;-77
2022/12/04 03:14:23;;;;;;;54.03;20.17;;;3.00;99.90;;;;;;4736022;30;20143;-77
2022/12/04 03:16:54;;;;;;;55.38;23.50;;;2.90;99.90;;;;;;4735394;30;20049;-77
2022/12/04 03:19:27;;;;;;;52.80;21.40;;;2.90;99.90;;;;;;4732734;30;20045;-77
2022/12/04 03:21:58;;;;;;;53.03;22.23;;;2.50;99.90;;;;;;4740411;30;20068;-77
2022/12/04 03:24:36;;;;;;;55.22;22.35;;;3.90;99.90;;;;;;4743243;30;20055;-77
2022/12/04 03:27:28;;;;;;;55.03;23.38;;;2.70;99.90;;;;;;4737266;30;20060;-77
2022/12/04 03:30:05;;;;;;;53.80;22.60;;;3.60;99.90;;;;;;4732211;30;20060;-77
2022/12/04 03:32:51;;;;;;;51.33;21.60;;;2.80;99.90;;;;;;4720483;30;20041;-77
2022/12/04 03:35:36;;;;;;;59.42;22.75;;;2.80;99.90;;;;;;4734253;30;20068;-78
2022/12/04 03:38:15;;;;;;;53.38;20.23;;;2.80;99.90;;;;;;4735201;30;20241;-77
2022/12/04 03:40:53;;;;;;;54.42;22.33;;;2.90;99.90;;;;;;4734579;30;20087;-77
2022/12/04 03:43:33;;;;;;;53.72;20.50;;;3.10;99.90;;;;;;4738821;30;20056;-77
2022/12/04 03:46:10;;;;;;;48.00;18.20;;;2.80;99.90;;;;;;4722010;30;20828;-77
2022/12/04 03:48:47;;;;;;;56.67;20.20;;;3.70;99.90;;;;;;4720828;30;20049;-77
2022/12/04 03:51:25;;;;;;;47.85;18.48;;;2.80;99.90;;;;;;4736859;30;20900;-78
2022/12/04 03:54:08;;;;;;;49.97;19.63;;;2.50;99.90;;;;;;4721988;30;20052;-77
2022/12/04 03:56:42;;;;;;;52.50;21.23;;;2.70;99.90;;;;;;4738639;30;20056;-77
2022/12/04 03:59:27;;;;;;;49.72;18.27;;;3.20;99.90;;;;;;4743087;30;20377;-77
2022/12/04 04:02:02;;;;;;;57.63;22.50;;;2.80;99.90;;;;;;4724699;30;20057;-77
2022/12/04 04:04:35;;;;;;;49.95;22.10;;;3.40;99.90;;;;;;4737822;30;20052;-77
2022/12/04 04:07:23;;;;;;;56.15;21.27;;;2.60;99.90;;;;;;4737549;30;20064;-78
2022/12/04 04:10:05;;;;;;;54.00;21.92;;;2.80;99.90;;;;;;4722547;30;20658;-77
2022/12/04 04:12:39;;;;;;;53.33;20.85;;;3.80;99.90;;;;;;4721567;30;20049;-78
2022/12/04 04:26:40;;;;;;;59.42;22.15;;;2.70;99.90;;;;;;4737037;30;20483;-78
2022/12/04 04:29:09;;;;;;;56.67;20.58;;;2.00;99.90;;;;;;4737266;30;20053;-78
2022/12/04 04:31:59;;;;;;;53.55;21.10;;;2.40;99.90;;;;;;4734368;30;20049;-77
2022/12/04 04:34:45;;;;;;;65.55;23.73;;;2.60;99.90;;;;;;4737093;30;20049;-77
2022/12/04 04:37:33;;;;;;;49.95;20.85;;;2.20;99.90;;;;;;4723088;30;20076;-77
2022/12/04 04:40:06;;;;;;;54.05;20.65;;;2.30;99.90;;;;;;4719336;30;20143;-77
2022/12/04 04:42:48;;;;;;;59.78;21.95;;;2.50;99.90;;;;;;4727472;30;20067;-77
2022/12/04 04:45:34;;;;;;;59.88;25.15;;;2.50;99.90;;;;;;4736835;30;20055;-77
2022/12/04 04:48:08;;;;;;;60.55;23.33;;;2.50;99.90;;;;;;4720869;30;20071;-77
2022/12/04 04:50:37;;;;;;;58.95;24.70;;;2.50;99.90;;;;;;4721820;30;20055;-78
2022/12/04 04:53:13;;;;;;;60.20;23.63;;;2.20;99.90;;;;;;4738532;30;20048;-78
2022/12/04 04:55:41;;;;;;;;;;;2.50;99.90;;;;;;4711332;30;20143;-77
2022/12/04 04:58:16;;;;;;;57.60;21.67;;;2.50;99.90;;;;;;4732074;30;19926;-77
2022/12/04 05:00:50;;;;;;;60.72;23.00;;;2.50;99.90;;;;;;4731808;30;20071;-77
2022/12/04 05:03:18;;;;;;;59.60;21.65;;;2.50;99.90;;;;;;4740053;30;20059;-78
2022/12/04 05:05:46;;;;;;;58.45;23.92;;;2.60;99.90;;;;;;4734947;30;20057;-77
2022/12/04 05:08:14;;;;;;;56.50;22.42;;;2.50;99.90;;;;;;4720910;30;20076;-77
2022/12/04 05:10:48;;;;;;;57.53;21.85;;;2.50;99.90;;;;;;4720452;30;20403;-77
2022/12/04 05:13:17;;;;;;;60.42;23.38;;;2.40;99.90;;;;;;4735361;30;20052;-77
2022/12/04 05:15:54;;;;;;;60.75;22.60;;;1.30;99.90;;;;;;4731498;30;20055;-77
2022/12/04 05:18:23;;;;;;;53.03;22.80;;;2.50;99.90;;;;;;4730900;30;20136;-77
2022/12/04 05:20:50;;;;;;;60.13;22.00;;;2.40;99.90;;;;;;4734720;30;23991;-77
2022/12/04 05:23:18;;;;;;;61.53;23.23;;;2.40;99.90;;;;;;4722760;30;20045;-77
2022/12/04 05:25:45;;;;;;;59.42;23.60;;;2.40;99.90;;;;;;4737043;30;20159;-77
2022/12/04 05:28:16;;;;;;;63.05;24.52;;;2.40;99.90;;;;;;4705886;30;20053;-77
2022/12/04 05:30:44;;;;;;;60.45;22.33;;;2.40;99.90;;;;;;4731401;30;20053;-77
2022/12/04 05:33:11;;;;;;;53.45;19.48;;;2.30;99.90;;;;;;4720870;30;20130;-77
2022/12/04 05:35:40;;;;;;;52.40;16.63;;;2.30;99.90;;;;;;4732119;30;20140;-77
2022/12/04 05:38:07;;;;;;;64.53;24.40;;;2.30;99.90;;;;;;4713477;30;20057;-77
2022/12/04 05:40:35;;;;;;;58.30;18.92;;;2.30;99.90;;;;;;4725456;30;20041;-77
2022/12/04 05:43:04;;;;;;;62.67;22.88;;;2.30;99.90;;;;;;4729033;30;20046;-77
2022/12/04 05:45:31;;;;;;;58.65;22.35;;;2.20;99.90;;;;;;4703146;30;20045;-77
2022/12/04 05:47:59;;;;;;;57.55;21.63;;;2.60;99.90;;;;;;4729607;30;20066;-78
2022/12/04 05:50:48;;;;;;;55.80;20.75;;;3.10;99.90;;;;;;4727399;30;20080;-77
2022/12/04 05:53:16;;;;;;;51.78;20.80;;;2.30;99.90;;;;;;4708052;30;20113;-77
2022/12/04 05:55:43;;;;;;;61.60;23.85;;;2.30;99.90;;;;;;4716393;30;20048;-77
2022/12/04 05:58:14;;;;;;;61.28;21.77;;;3.60;99.90;;;;;;4713990;30;20470;-77
2022/12/04 06:00:42;;;;;;;55.80;23.05;;;2.30;99.90;;;;;;4717161;30;20071;-77
2022/12/04 06:03:09;;;;;;;56.05;22.17;;;2.40;99.90;;;;;;4688104;30;20061;-78
2022/12/04 06:05:36;;;;;;;51.22;19.95;;;2.40;99.90;;;;;;4685021;30;20048;-78
2022/12/04 06:08:03;;;;;;;53.80;22.35;;;2.40;99.90;;;;;;4689406;30;20056;-77
2022/12/04 06:10:31;;;;;;;56.60;21.13;;;4.00;99.90;;;;;;4703467;30;20518;-77
2022/12/04 06:12:58;;;;;;;66.93;23.67;;;2.40;99.90;;;;;;4700470;30;20122;-77
2022/12/04 06:15:25;;;;;;;62.58;23.83;;;3.50;99.90;;;;;;4716375;30;20038;-77
2022/12/04 06:17:53;;;;;;;68.05;26.00;;;2.60;99.90;;;;;;4722021;30;20144;-77
2022/12/04 06:20:21;;;;;;;66.75;25.70;;;2.50;99.90;;;;;;4716717;30;20069;-77
2022/12/04 06:22:49;;;;;;;56.65;24.08;;;2.50;99.90;;;;;;4688539;30;20065;-77
2022/12/04 06:25:20;;;;;;;65.60;25.77;;;2.50;99.90;;;;;;4716720;30;20167;-77
2022/12/04 06:27:50;;;;;;;54.77;23.33;;;2.30;99.90;;;;;;4737471;30;20132;-77
2022/12/04 06:30:17;;;;;;;68.45;23.98;;;2.20;99.90;;;;;;4733223;30;20310;-77
2022/12/04 06:32:48;;;;;;;66.50;24.77;;;2.50;99.90;;;;;;4720342;30;20051;-77
2022/12/04 06:35:15;;;;;;;54.20;19.38;;;1.90;99.90;;;;;;4718644;30;20049;-77
2022/12/04 06:37:43;;;;;;;61.67;22.92;;;1.90;99.90;;;;;;4709210;30;20053;-77
2022/12/04 06:40:10;;;;;;;59.67;24.38;;;1.80;99.90;;;;;;4720761;30;20129;-77
2022/12/04 06:42:38;;;;;;;62.00;23.17;;;2.40;99.90;;;;;;4713572;30;20061;-77
2022/12/04 06:45:06;;;;;;;61.42;22.35;;;2.50;99.90;;;;;;4689192;30;20125;-77
2022/12/04 06:47:35;;;;;;;61.50;25.73;;;2.60;99.90;;;;;;4719231;30;20049;-77
2022/12/04 06:50:03;;;;;;;66.82;23.45;;;3.60;99.90;;;;;;4697556;30;20081;-77
2022/12/04 06:52:34;;;;;;;62.50;22.30;;;2.60;99.90;;;;;;4713343;30;20046;-77
2022/12/04 06:55:01;;;;;;;54.88;22.23;;;2.60;99.90;;;;;;4710879;30;20475;-77
2022/12/04 06:57:29;;;;;;;65.70;25.95;;;2.30;99.90;;;;;;4714079;30;20045;-78
2022/12/04 06:59:57;;;;;;;63.45;24.42;;;4.10;99.90;;;;;;4701202;30;20046;-77
2022/12/04 07:02:25;;;;;;;68.68;26.13;;;2.70;99.90;;;;;;4706340;30;20157;-77
2022/12/04 07:04:57;;;;;;;67.10;25.65;;;2.70;99.90;;;;;;4714370;30;20407;-77
2022/12/04 07:07:24;;;;;;;64.95;24.30;;;2.80;99.90;;;;;;4718311;30;20054;-77
2022/12/04 07:09:52;;;;;;;70.55;25.63;;;1.70;99.90;;;;;;4713366;30;20057;-77
2022/12/04 07:12:23;;;;;;;72.50;26.02;;;3.00;99.90;;;;;;4705250;30;20044;-78
2022/12/04 07:14:53;;;;;;;79.25;30.42;;;2.70;99.90;;;;;;4696239;30;20053;-77
2022/12/04 07:17:24;;;;;;;83.82;30.60;;;2.80;99.90;;;;;;4713515;30;20049;-77
2022/12/04 07:19:52;;;;;;;76.10;28.10;;;3.00;99.90;;;;;;4704072;30;20045;-77
2022/12/04 07:22:21;;;;;;;68.93;26.08;;;2.90;99.90;;;;;;4706451;30;20050;-78
2022/12/04 07:24:49;;;;;;;72.07;27.05;;;2.50;99.90;;;;;;4723502;30;20068;-77
2022/12/04 07:27:19;;;;;;;59.90;24.80;;;2.90;99.90;;;;;;4708796;30;20629;-77
2022/12/04 07:29:46;;;;;;;79.55;26.88;;;2.90;99.90;;;;;;4699555;30;20040;-78
2022/12/04 07:32:14;;;;;;;73.05;28.65;;;3.00;99.90;;;;;;4709264;30;20059;-78
2022/12/04 07:34:41;;;;;;;77.80;28.52;;;3.00;99.90;;;;;;4720853;30;20057;-77
2022/12/04 07:37:09;;;;;;;62.88;24.33;;;3.00;99.90;;;;;;4714288;30;20116;-78
2022/12/04 07:39:42;;;;;;;68.93;26.70;;;3.20;99.90;;;;;;4727659;30;20045;-77
2022/12/04 07:42:17;;;;;;;65.93;26.42;;;2.40;99.90;;;;;;4706529;30;20125;-77
2022/12/04 07:44:59;;;;;;;65.07;25.17;;;3.00;99.90;;;;;;4707334;30;20061;-78
2022/12/04 07:47:36;;;;;;;63.63;25.25;;;3.00;99.90;;;;;;4681884;30;20293;-77
2022/12/04 07:50:05;;;;;;;60.17;23.15;;;3.00;99.90;;;;;;4693695;30;20058;-77
2022/12/04 07:52:46;;;;;;;67.55;25.58;;;3.10;99.90;;;;;;4698976;30;20045;-77
2022/12/04 07:55:14;;;;;;;63.53;24.38;;;3.20;99.90;;;;;;4704653;30;20054;-78
2022/12/04 07:57:49;;;;;;;64.78;23.67;;;3.20;99.90;;;;;;4706631;30;20033;-78
2022/12/04 10:50:45;;;;;;;30.45;13.15;;;6.20;99.90;;;;;;5500792;24;20026;-77
2022/12/04 11:01:15;;;;;;;32.55;15.30;;;6.30;99.90;;;;;;5258367;24;20039;31
2022/12/04 11:15:44;;;;;;;35.05;16.23;;;6.30;99.90;;;;;;5420559;24;20051;-79
2022/12/04 11:18:57;;;;;;;;;;;6.60;99.90;;;;;;5145494;24;21030;-78
2022/12/04 11:39:16;;;;;;;28.77;15.73;;;6.70;99.90;;;;;;5733196;24;20029;31
2022/12/04 11:53:21;;;;;;;26.97;12.67;;;6.90;99.90;;;;;;5729401;24;20030;-79
2022/12/04 11:57:09;;;;;;;30.88;13.80;;;6.80;99.90;;;;;;5019344;24;20085;31
2022/12/04 12:00:27;;;;;;;32.55;14.75;;;6.90;99.90;;;;;;5756987;24;20041;31
2022/12/04 12:06:56;;;;;;;23.38;10.48;;;6.90;99.90;;;;;;4940233;24;20177;-76
2022/12/04 12:10:32;;;;;;;27.08;13.13;;;6.90;99.90;;;;;;4760321;30;20049;-77
2022/12/04 12:34:08;;;;;;;28.45;12.45;;;7.00;99.90;;;;;;4971685;24;20040;-79
2022/12/04 12:37:36;;;;;;;31.25;15.02;;;7.00;99.90;;;;;;5112722;24;20052;-78
2022/12/04 12:40:46;;;;;;;35.45;13.80;;;7.00;99.90;;;;;;5446616;24;20034;-79
2022/12/04 13:04:24;;;;;;;27.92;13.55;;;7.10;99.90;;;;;;4873366;24;20053;-77
2022/12/04 13:28:22;;;;;;;36.90;17.42;;;7.60;99.90;;;;;;5802845;24;20034;31
2022/12/04 14:52:30;;;;;;;30.55;15.25;;;6.40;99.90;;;;;;5805530;24;20034;31
2022/12/04 15:19:34;;;;;;;33.85;15.82;;;6.30;99.90;;;;;;5154729;24;20092;-79
2022/12/04 15:22:10;;;;;;;41.00;17.58;;;6.30;99.90;;;;;;4773308;29;20102;-79
2022/12/04 15:24:38;;;;;;;37.95;18.35;;;6.20;99.90;;;;;;4759118;30;20055;-79
2022/12/04 15:27:06;;;;;;;38.58;17.95;;;6.20;99.90;;;;;;4773961;29;20104;-79
2022/12/04 15:29:37;;;;;;;39.80;17.70;;;6.20;99.90;;;;;;4771295;30;20059;-79
2022/12/04 15:32:10;;;;;;;38.60;17.02;;;6.20;99.90;;;;;;4741557;30;20109;-79
2022/12/04 15:34:58;;;;;;;35.15;17.45;;;6.20;99.90;;;;;;4775274;30;20159;-79
2022/12/04 15:37:30;;;;;;;37.55;17.60;;;6.20;99.90;;;;;;4797728;29;20039;-79
2022/12/04 15:40:07;;;;;;;39.78;18.25;;;6.20;99.90;;;;;;4776060;29;20035;-79
2022/12/04 15:49:27;;;;;;;39.92;17.95;;;6.10;99.90;;;;;;5427137;24;20062;-78
2022/12/04 15:52:26;;;;;;;39.72;19.75;;;6.10;99.90;;;;;;5291311;24;20027;-78
2022/12/04 15:55:08;;;;;;;36.45;17.85;;;6.10;99.90;;;;;;4864875;24;20047;-78
2022/12/04 15:57:42;;;;;;;45.38;20.77;;;6.10;99.90;;;;;;5081925;24;20040;-78
2022/12/04 16:00:37;;;;;;;54.70;22.88;;;6.10;99.90;;;;;;5521254;24;20643;31
2022/12/04 16:10:00;;;;;;;48.80;20.70;;;6.00;99.90;;;;;;4847788;24;20063;-77
2022/12/04 16:15:47;;;;;;;43.25;20.25;;;6.00;99.90;;;;;;4885883;24;20044;-79
2022/12/04 16:18:19;;;;;;;42.60;19.50;;;6.00;99.90;;;;;;4793015;30;20043;-79
2022/12/04 16:20:55;;;;;;;42.17;19.67;;;6.00;99.90;;;;;;4880568;24;20071;-79
2022/12/04 16:23:24;;;;;;;48.65;19.55;;;6.00;99.90;;;;;;4769743;30;20120;-79
2022/12/04 16:25:57;;;;;;;43.17;19.42;;;5.90;99.90;;;;;;4792697;24;20071;-79
2022/12/04 16:28:27;;;;;;;40.50;19.23;;;6.00;99.90;;;;;;4770955;29;20048;-79
2022/12/04 16:30:56;;;;;;;42.95;19.30;;;6.00;99.90;;;;;;4993569;24;20030;-78
2022/12/04 16:33:25;;;;;;;54.53;22.30;;;6.00;99.90;;;;;;4802482;29;20094;-78
2022/12/04 16:35:53;;;;;;;53.28;21.90;;;6.00;99.90;;;;;;4794341;29;20055;-77
2022/12/04 16:41:50;;;;;;;49.00;22.63;;;6.00;99.90;;;;;;4765717;30;20105;-77
2022/12/04 16:44:25;;;;;;;46.30;21.08;;;6.00;99.90;;;;;;3401037;24;20240;-78
2022/12/04 16:47:00;;;;;;;49.28;22.50;;;6.00;99.90;;;;;;4918276;24;20060;-78
2022/12/04 16:49:30;;;;;;;46.95;23.60;;;5.90;99.90;;;;;;5031539;24;20047;-78
2022/12/04 16:51:59;;;;;;;49.88;23.88;;;5.90;99.90;;;;;;4992273;24;20174;-78
2022/12/04 16:54:28;;;;;;;50.35;21.88;;;5.90;99.90;;;;;;4902099;24;20122;-78
2022/12/04 16:56:59;;;;;;;47.90;22.60;;;5.90;99.90;;;;;;4770166;30;20052;-78
2022/12/04 16:59:28;;;;;;;54.75;27.33;;;5.90;99.90;;;;;;4755252;30;20288;-77
2022/12/04 17:02:20;;;;;;;47.40;23.13;;;5.90;99.90;;;;;;5017700;24;20091;-78
2022/12/04 17:04:49;;;;;;;47.50;22.25;;;5.90;99.90;;;;;;4771709;30;20067;-78
2022/12/04 17:07:24;;;;;;;48.17;22.65;;;5.90;99.90;;;;;;4766017;30;20099;-78
2022/12/04 17:09:56;;;;;;;50.60;24.13;;;6.90;99.90;;;;;;4771204;30;20035;-78
2022/12/04 17:12:47;;;;;;;47.30;21.92;;;5.90;99.90;;;;;;5485025;24;20031;-78
2022/12/04 17:15:14;;;;;;;48.25;22.55;;;5.90;99.90;;;;;;4787746;30;20087;-78
2022/12/04 17:18:05;;;;;;;46.03;21.88;;;5.90;99.90;;;;;;4791875;30;20054;-78
2022/12/04 17:20:43;;;;;;;46.45;22.25;;;5.90;99.90;;;;;;4820843;24;20404;-78
2022/12/04 17:23:11;;;;;;;45.53;20.80;;;5.90;99.90;;;;;;4915096;24;20063;-78
2022/12/04 17:25:39;;;;;;;42.78;20.73;;;5.90;99.90;;;;;;4758417;30;20106;-78
2022/12/04 17:28:07;;;;;;;46.95;21.75;;;5.90;99.90;;;;;;4747247;30;20409;-78
2022/12/04 17:30:35;;;;;;;50.20;21.70;;;5.90;99.90;;;;;;4735654;30;20067;-78
2022/12/04 17:33:03;;;;;;;46.95;21.25;;;5.90;99.90;;;;;;4734341;30;20086;-78
2022/12/04 17:35:31;;;;;;;45.25;20.10;;;5.80;99.90;;;;;;4747760;30;20109;-78
2022/12/04 17:37:58;;;;;;;48.17;20.92;;;5.80;99.90;;;;;;4749820;30;20469;-78
2022/12/04 17:40:32;;;;;;;42.63;21.15;;;5.80;99.90;;;;;;4734329;30;20055;-78
2022/12/04 17:42:59;;;;;;;48.25;21.70;;;5.80;99.90;;;;;;4739222;30;20060;-78
2022/12/04 17:45:27;;;;;;;47.92;23.40;;;6.30;99.90;;;;;;4754962;30;20057;-78
2022/12/04 17:47:54;;;;;;;46.67;21.83;;;5.80;99.90;;;;;;4735325;30;20060;-78
2022/12/04 17:50:22;;;;;;;46.72;21.45;;;5.80;99.90;;;;;;4749143;30;20059;-78
2022/12/04 17:52:49;;;;;;;51.70;22.35;;;5.80;99.90;;;;;;4736825;30;20063;-79
2022/12/04 17:55:16;;;;;;;53.72;22.63;;;5.80;99.90;;;;;;4769488;30;20040;-78
2022/12/04 17:57:44;;;;;;;62.95;26.60;;;5.80;99.90;;;;;;4750214;30;20412;-78
2022/12/04 18:00:12;;;;;;;60.53;25.58;;;5.80;99.90;;;;;;4729574;30;20060;-78
2022/12/04 18:02:41;;;;;;;57.00;26.75;;;5.80;99.90;;;;;;4751934;30;20078;-78
2022/12/04 18:05:09;;;;;;;55.72;25.83;;;5.80;99.90;;;;;;4753916;30;20052;-78
2022/12/04 18:07:36;;;;;;;53.33;26.48;;;5.00;99.90;;;;;;4738689;30;20167;-78
2022/12/04 18:10:05;;;;;;;63.35;28.65;;;6.00;99.90;;;;;;4767043;30;20036;-78
2022/12/04 18:12:32;;;;;;;50.20;25.15;;;5.80;99.90;;;;;;4754091;30;20094;-78
2022/12/04 18:15:00;;;;;;;60.63;28.10;;;5.80;99.90;;;;;;4749756;30;20048;-78
2022/12/04 18:17:27;;;;;;;57.45;28.88;;;5.80;99.90;;;;;;4753168;30;20156;-78
2022/12/04 18:19:56;;;;;;;53.65;25.02;;;5.80;99.90;;;;;;4759149;30;20049;-78
2022/12/04 18:22:30;;;;;;;67.10;34.10;;;5.80;99.90;;;;;;4734244;30;20107;-78
2022/12/04 18:24:57;;;;;;;55.20;25.80;;;5.80;99.90;;;;;;4733011;30;20130;-78
2022/12/04 18:27:25;;;;;;;67.55;28.50;;;5.80;99.90;;;;;;4738308;30;20056;-78
2022/12/04 18:29:53;;;;;;;50.80;24.38;;;6.00;99.90;;;;;;4720167;30;20048;-78
2022/12/04 18:32:22;;;;;;;58.67;28.27;;;5.80;99.90;;;;;;4731237;30;20055;-78
2022/12/04 18:34:49;;;;;;;50.67;24.27;;;5.80;99.90;;;;;;4745388;30;20102;-78
2022/12/04 18:37:16;;;;;;;51.00;24.83;;;5.80;99.90;;;;;;4735837;30;20072;-78
2022/12/04 18:39:43;;;;;;;40.50;21.55;;;5.80;99.90;;;;;;4734686;30;20049;-78
2022/12/04 18:42:10;;;;;;;44.25;20.30;;;5.80;99.90;;;;;;4737684;30;20577;-78
2022/12/04 18:44:38;;;;;;;43.65;20.27;;;5.80;99.90;;;;;;4734978;30;20061;-78
2022/12/04 18:47:06;;;;;;;45.33;20.92;;;5.80;99.90;;;;;;4754849;30;20048;-78
2022/12/04 18:49:34;;;;;;;43.40;20.92;;;5.80;99.90;;;;;;4733286;30;20044;-78
2022/12/04 18:52:01;;;;;;;42.75;20.00;;;5.80;99.90;;;;;;4739454;30;20463;-79
2022/12/04 18:54:28;;;;;;;42.22;19.52;;;5.80;99.90;;;;;;4735405;30;20060;-78
2022/12/04 18:56:56;;;;;;;45.28;21.55;;;5.80;99.90;;;;;;4722805;30;20055;-78
2022/12/04 18:59:28;;;;;;;38.03;17.00;;;5.80;99.90;;;;;;4736454;30;20048;-78
2022/12/04 19:01:55;;;;;;;37.50;17.50;;;5.80;99.90;;;;;;4738669;30;20060;-78
2022/12/04 19:04:24;;;;;;;41.83;18.40;;;5.80;99.90;;;;;;4734332;30;20513;-78
2022/12/04 19:06:55;;;;;;;42.13;19.45;;;5.80;99.90;;;;;;4733540;30;20052;-78
2022/12/04 19:09:26;;;;;;;45.22;21.15;;;5.90;99.90;;;;;;4749819;30;20075;-78
2022/12/04 19:12:14;;;;;;;49.72;22.33;;;5.80;99.90;;;;;;4718525;30;20460;-78
2022/12/04 19:14:42;;;;;;;45.75;20.17;;;5.80;99.90;;;;;;4724234;30;20129;-78
2022/12/04 19:17:11;;;;;;;40.40;17.23;;;5.80;99.90;;;;;;4733830;30;20118;-78
2022/12/04 19:19:38;;;;;;;40.65;19.13;;;5.80;99.90;;;;;;4730424;30;20139;-78
2022/12/04 19:22:06;;;;;;;46.72;21.63;;;5.80;99.90;;;;;;4733821;30;20114;-78
2022/12/04 19:24:37;;;;;;;45.72;20.10;;;5.80;99.90;;;;;;4718882;30;20088;-78
2022/12/04 19:27:11;;;;;;;36.33;18.98;;;5.80;99.90;;;;;;4742865;30;20052;-78
2022/12/04 19:29:41;;;;;;;36.67;18.08;;;5.80;99.90;;;;;;4747846;30;20072;-78
2022/12/04 19:32:10;;;;;;;33.85;16.67;;;5.80;99.90;;;;;;4746425;30;20052;-78
2022/12/04 19:34:58;;;;;;;36.20;17.48;;;5.80;99.90;;;;;;4745784;30;20068;-78
2022/12/04 19:37:28;;;;;;;41.30;18.02;;;5.80;99.90;;;;;;4728522;30;20874;-78
2022/12/04 19:39:56;;;;;;;34.22;16.73;;;5.80;99.90;;;;;;4733083;30;20090;-79
2022/12/04 19:42:24;;;;;;;36.17;15.73;;;5.80;99.90;;;;;;4742475;30;20060;-78
2022/12/04 19:44:53;;;;;;;46.97;20.48;;;5.80;99.90;;;;;;4731739;30;20048;-78
2022/12/04 19:47:24;;;;;;;43.42;19.88;;;5.80;99.90;;;;;;4745410;30;20064;-77
2022/12/04 19:49:52;;;;;;;49.97;21.77;;;5.80;99.90;;;;;;4735076;30;20052;-78
2022/12/04 19:52:19;;;;;;;33.67;15.18;;;5.80;99.90;;;;;;4745814;30;20064;-78
2022/12/04 19:54:49;;;;;;;36.90;17.30;;;5.80;99.90;;;;;;4729941;30;20060;-78
2022/12/04 19:57:18;;;;;;;37.72;17.10;;;5.90;99.90;;;;;;4747589;30;20052;-79
2022/12/04 19:59:45;;;;;;;35.88;15.93;;;5.80;99.90;;;;;;4743923;30;20068;-78
2022/12/04 20:02:14;;;;;;;32.22;14.98;;;5.80;99.90;;;;;;4728941;30;20047;-78
2022/12/04 20:04:42;;;;;;;32.17;15.15;;;5.80;99.90;;;;;;4742738;30;20084;-78
2022/12/04 20:07:10;;;;;;;33.50;15.93;;;5.80;99.90;;;;;;4719969;30;20064;-78
2022/12/04 20:09:38;;;;;;;36.83;17.13;;;6.30;99.90;;;;;;4741831;30;20147;-78
2022/12/04 20:12:06;;;;;;;31.42;12.25;;;5.80;99.90;;;;;;4731137;30;20059;-79
2022/12/04 20:14:34;;;;;;;29.02;13.60;;;5.80;99.90;;;;;;4730725;30;20103;-78